Time;durP1;ratioP1;P1;durP2;ratioP2;P2;SDS_P1;SDS_P2;PMS_P1;PMS_P2;Temp;Humidity;BMP_temperature;BMP_pressure;BME280_temperature;BME280_humidity;BME280_pressure;Samples;Min_cycle;Max_cycle;Signal;HPM_P1;HPM_P2
2022/11/16 00:02:12;;;;;;;;;;;12.60;99.90;;;;;;12606039;28;20276;-39
2022/11/16 00:08:13;;;;;;;;;;;12.40;99.90;;;;;;12617620;28;19924;-39
2022/11/16 00:14:16;;;;;;;;;;;12.40;99.90;;;;;;12609932;28;19932;-39
2022/11/16 00:20:17;;;;;;;;;;;12.30;99.90;;;;;;12618914;28;19936;-38
2022/11/16 00:26:19;;;;;;;;;;;12.30;99.90;;;;;;12620367;28;19925;-39
2022/11/16 00:32:22;;;;;;;;;;;12.20;99.90;;;;;;12612580;28;19928;-39
2022/11/16 00:38:24;;;;;;;;;;;12.20;99.90;;;;;;12600792;28;19972;-39
2022/11/16 00:44:25;;;;;;;;;;;12.10;99.90;;;;;;12615500;28;20433;-39
2022/11/16 00:50:27;;;;;;;;;;;12.00;99.90;;;;;;12604349;28;19977;-39
2022/11/16 00:56:29;;;;;;;;;;;11.80;99.90;;;;;;12615535;28;20650;-39
2022/11/16 01:02:31;;;;;;;;;;;11.80;99.90;;;;;;12607599;28;20291;-39
2022/11/16 01:08:34;;;;;;;;;;;11.70;99.90;;;;;;12620464;28;19970;-39
2022/11/16 01:14:37;;;;;;;;;;;11.60;99.90;;;;;;12616659;28;20298;-39
2022/11/16 01:20:39;;;;;;;;;;;11.60;99.90;;;;;;12600874;28;19935;-39
2022/11/16 01:26:41;;;;;;;;;;;11.40;99.90;;;;;;12622673;28;19924;-40
2022/11/16 01:32:42;;;;;;;;;;;11.20;99.90;;;;;;12620293;28;19931;-39
2022/11/16 01:38:45;;;;;;;;;;;11.20;99.90;;;;;;12616074;28;20350;-39
2022/11/16 01:44:46;;;;;;;;;;;11.20;99.90;;;;;;12621100;28;19924;-39
2022/11/16 01:50:48;;;;;;;;;;;11.10;99.90;;;;;;12599052;28;20346;-39
2022/11/16 01:56:51;;;;;;;;;;;11.00;99.90;;;;;;12595419;28;19928;-39
2022/11/16 02:02:53;;;;;;;;;;;10.90;99.90;;;;;;12619816;28;19927;-39
2022/11/16 02:15:34;;;;;;;;;;;10.60;99.90;;;;;;12624402;28;19949;-39
2022/11/16 02:21:44;;;;;;;;;;;10.60;99.90;;;;;;12632895;28;20368;-40
2022/11/16 02:28:04;;;;;;;;;;;10.50;99.90;;;;;;12620408;28;19931;-39
2022/11/16 02:34:08;;;;;;;;;;;10.40;99.90;;;;;;12612813;28;19931;-39
2022/11/16 02:40:12;;;;;;;;;;;10.50;99.90;;;;;;12630710;28;19924;-38
2022/11/16 02:46:17;;;;;;;;;;;10.40;99.90;;;;;;12623120;28;19928;-39
2022/11/16 02:52:20;;;;;;;;;;;10.50;99.90;;;;;;12608661;28;19935;-39
2022/11/16 02:58:23;;;;;;;;;;;10.50;99.90;;;;;;12578112;28;19932;-39
2022/11/16 03:04:32;;;;;;;;;;;10.40;99.90;;;;;;12619564;28;19931;-39
2022/11/16 03:16:59;;;;;;;;;;;10.40;99.90;;;;;;12627084;28;19967;-39
2022/11/16 03:23:03;;;;;;;;;;;10.50;99.90;;;;;;12629333;28;19928;-39
2022/11/16 03:29:37;;;;;;;;;;;10.50;99.90;;;;;;12613652;28;20284;-39
2022/11/16 03:35:58;;;;;;;;;;;10.40;99.90;;;;;;12573118;28;19936;-39
2022/11/16 03:42:01;;;;;;;;;;;10.40;99.90;;;;;;12605561;28;19935;-38
2022/11/16 03:48:05;;;;;;;;;;;10.40;99.90;;;;;;12597382;28;19928;-38
2022/11/16 03:54:06;;;;;;;;;;;10.40;99.90;;;;;;12612728;28;20299;-39
2022/11/16 04:00:08;;;;;;;;;;;10.40;99.90;;;;;;12624574;28;19962;-39
2022/11/16 04:25:15;;;;;;;;;;;10.20;99.90;;;;;;12604378;28;19924;-39
2022/11/16 04:37:51;;;;;;;;;;;10.10;99.90;;;;;;12612288;28;19929;-39
2022/11/16 04:43:53;;;;;;;;;;;10.00;99.90;;;;;;12611528;28;19979;-40
2022/11/16 04:49:54;;;;;;;;;;;10.10;99.90;;;;;;12614537;28;19924;-39
2022/11/16 04:55:56;;;;;;;;;;;10.00;99.90;;;;;;12612300;28;19973;-39
2022/11/16 05:02:07;;;;;;;;;;;10.00;99.90;;;;;;12615581;28;19932;-39
2022/11/16 05:08:09;;;;;;;;;;;10.00;99.90;;;;;;12602949;28;20353;-39
2022/11/16 05:14:11;;;;;;;;;;;10.00;99.90;;;;;;12609877;28;20291;-39
2022/11/16 05:26:33;;;;;;;;;;;10.00;99.90;;;;;;12609387;28;19935;-39
2022/11/16 05:32:35;;;;;;;;;;;10.00;99.90;;;;;;12579723;28;19924;-39
2022/11/16 05:38:37;;;;;;;;;;;10.00;99.90;;;;;;12616479;28;19931;-39
2022/11/16 05:44:38;;;;;;;;;;;10.00;99.90;;;;;;12604857;28;19932;-39
2022/11/16 05:50:40;;;;;;;;;;;10.00;99.90;;;;;;12608168;28;19931;-40
2022/11/16 05:56:44;;;;;;;;;;;10.00;99.90;;;;;;12609695;28;19976;-39
2022/11/16 06:02:45;;;;;;;;;;;10.00;99.90;;;;;;12605939;28;19928;-39
2022/11/16 06:08:47;;;;;;;;;;;9.90;99.90;;;;;;12605931;28;20277;-38
2022/11/16 06:14:49;;;;;;;;;;;9.90;99.90;;;;;;12599091;28;20023;-39
2022/11/16 06:20:51;;;;;;;;;;;9.90;99.90;;;;;;12616168;28;19928;-39
2022/11/16 06:26:53;;;;;;;;;;;9.90;99.90;;;;;;12621359;28;19924;-39
2022/11/16 06:32:54;;;;;;;;;;;9.90;99.90;;;;;;12584553;28;19928;-39
2022/11/16 06:38:57;;;;;;;;;;;9.90;99.90;;;;;;12612043;28;19931;-39
2022/11/16 06:44:59;;;;;;;;;;;9.80;99.90;;;;;;12610549;28;19928;-39
2022/11/16 06:51:01;;;;;;;;;;;9.80;99.90;;;;;;12613620;28;20384;-39
2022/11/16 06:57:02;;;;;;;;;;;9.80;99.90;;;;;;12614758;28;19928;-39
2022/11/16 07:03:04;;;;;;;;;;;9.80;99.90;;;;;;12594778;28;19928;-39
2022/11/16 07:09:06;;;;;;;;;;;9.80;99.90;;;;;;12623612;28;19924;-39
2022/11/16 07:15:08;;;;;;;;;;;9.80;99.90;;;;;;12598487;28;20023;-39
2022/11/16 07:21:12;;;;;;;;;;;9.80;99.90;;;;;;12616291;28;20304;-39
2022/11/16 07:27:13;;;;;;;;;;;9.80;99.90;;;;;;12625557;28;19925;-39
2022/11/16 07:33:16;;;;;;;;;;;9.80;99.90;;;;;;12615158;28;19932;-39
2022/11/16 07:39:17;;;;;;;;;;;9.80;99.90;;;;;;12603898;28;19932;-39
2022/11/16 07:45:19;;;;;;;;;;;9.80;99.90;;;;;;12618487;28;19935;-39
2022/11/16 07:51:21;;;;;;;;;;;9.80;99.90;;;;;;12608524;28;19928;-39
2022/11/16 07:57:22;;;;;;;;;;;9.80;99.90;;;;;;12615074;28;19924;-39
2022/11/16 08:03:24;;;;;;;;;;;9.80;99.90;;;;;;12619224;28;20407;-39
2022/11/16 08:09:26;;;;;;;;;;;9.80;99.90;;;;;;12620771;28;19932;-39
2022/11/16 08:15:27;;;;;;;;;;;9.90;99.90;;;;;;12609559;28;19985;-39
2022/11/16 08:21:29;;;;;;;;;;;9.90;99.90;;;;;;12619458;28;20077;-39
2022/11/16 08:27:31;;;;;;;;;;;9.80;99.90;;;;;;12618249;28;19925;-39
2022/11/16 08:33:33;;;;;;;;;;;9.80;99.90;;;;;;12604924;28;19925;-40
2022/11/16 08:39:35;;;;;;;;;;;9.90;99.90;;;;;;12611748;28;20392;-39
2022/11/16 08:45:37;;;;;;;;;;;9.90;99.90;;;;;;12616891;28;20299;-39
2022/11/16 08:51:39;;;;;;;;;;;10.00;99.90;;;;;;12615497;28;19928;-39
2022/11/16 08:57:40;;;;;;;;;;;9.90;99.90;;;;;;12610138;28;19931;-39
2022/11/16 09:03:42;;;;;;;;;;;9.90;99.90;;;;;;12620213;28;20388;-39
2022/11/16 09:09:44;;;;;;;;;;;9.90;99.90;;;;;;12609132;28;20372;-39
2022/11/16 09:15:46;;;;;;;;;;;9.90;99.90;;;;;;12603564;28;19928;-39
2022/11/16 09:21:47;;;;;;;;;;;9.90;99.90;;;;;;12607985;28;19935;-39
2022/11/16 09:27:49;;;;;;;;;;;9.90;99.90;;;;;;12614163;28;20012;-39
2022/11/16 09:33:51;;;;;;;;;;;9.90;99.90;;;;;;12619430;28;19928;-39
2022/11/16 09:39:53;;;;;;;;;;;10.00;99.90;;;;;;12610741;28;20371;-39
2022/11/16 09:45:58;;;;;;;;;;;10.00;99.90;;;;;;12620966;28;19925;-40
2022/11/16 09:52:02;;;;;;;;;;;10.10;99.90;;;;;;12604920;28;19935;-39
2022/11/16 09:58:07;;;;;;;;;;;10.10;99.90;;;;;;12607863;28;19924;-39
2022/11/16 10:04:12;;;;;;;;;;;10.20;99.90;;;;;;12609635;28;20408;-39
2022/11/16 10:10:14;;;;;;;;;;;10.30;99.90;;;;;;12609585;28;19931;-39
2022/11/16 10:16:25;;;;;;;;;;;10.30;99.90;;;;;;12613309;28;20375;-39
2022/11/16 10:22:27;;;;;;;;;;;10.50;99.90;;;;;;12595961;28;19924;-39
2022/11/16 10:28:48;;;;;;;;;;;10.40;99.90;;;;;;12607238;28;19981;-40
2022/11/16 10:34:53;;;;;;;;;;;10.40;99.90;;;;;;12599147;28;20307;-39
2022/11/16 10:40:58;;;;;;;;;;;10.40;99.90;;;;;;12608409;28;19931;-39
2022/11/16 10:47:04;;;;;;;;;;;10.50;99.90;;;;;;12624632;28;20392;-39
2022/11/16 10:53:10;;;;;;;;;;;10.60;99.90;;;;;;12602948;28;19954;-39
2022/11/16 10:59:13;;;;;;;;;;;10.70;99.90;;;;;;12614411;28;19929;-40
2022/11/16 11:05:16;;;;;;;;;;;10.70;99.90;;;;;;12613100;28;20066;-40
2022/11/16 11:17:43;;;;;;;;;;;10.70;99.90;;;;;;12614321;28;19948;-39
2022/11/16 11:23:47;;;;;;;;;;;10.60;99.90;;;;;;12613699;28;20165;-39
2022/11/16 11:29:51;;;;;;;;;;;10.60;99.90;;;;;;12608223;28;19936;-39
2022/11/16 11:36:24;;;;;;;;;;;10.60;99.90;;;;;;12617754;28;19924;-39
2022/11/16 11:42:26;;;;;;;;;;;10.60;99.90;;;;;;12591829;28;19935;-39
2022/11/16 11:48:35;;;;;;;;;;;10.80;99.90;;;;;;12621423;28;19947;-39
2022/11/16 11:54:40;;;;;;;;;;;10.90;99.90;;;;;;12614467;28;20383;-39
2022/11/16 12:01:00;;;;;;;;;;;10.90;99.90;;;;;;12614021;28;19951;-39
2022/11/16 12:07:21;;;;;;;;;;;11.00;99.90;;;;;;12607795;28;19928;-39
2022/11/16 12:13:30;;;;;;;;;;;11.10;99.90;;;;;;12613240;28;19924;-39
2022/11/16 12:19:55;;;;;;;;;;;11.40;99.90;;;;;;12602590;28;20348;-39
2022/11/16 12:26:14;;;;;;;;;;;11.90;99.90;;;;;;12611060;28;19924;-39
2022/11/16 12:32:21;;;;;;;;;;;12.10;99.90;;;;;;12600306;28;19928;-39
2022/11/16 12:38:41;;;;;;;;;;;12.10;99.90;;;;;;12623067;28;19960;-39
2022/11/16 12:44:46;;;;;;;;;;;12.50;99.90;;;;;;12619974;28;19924;-39
2022/11/16 12:50:58;;;;;;;;;;;12.70;99.90;;;;;;12613428;28;19925;-39
2022/11/16 12:57:00;;;;;;;;;;;12.50;99.90;;;;;;12601218;28;19932;-39
2022/11/16 13:03:14;;;;;;;;;;;12.30;99.90;;;;;;12609740;28;20406;-39
2022/11/16 13:09:19;;;;;;;;;;;12.30;99.90;;;;;;12606700;28;19932;-39
2022/11/16 13:15:23;;;;;;;;;;;12.50;99.90;;;;;;12578145;28;20011;-39
2022/11/16 13:21:33;;;;;;;;;;;12.60;99.90;;;;;;12620060;28;20287;-39
2022/11/16 13:27:39;;;;;;;;;;;12.60;99.90;;;;;;12597700;28;19924;-39
2022/11/16 13:33:43;;;;;;;;;;;12.40;99.90;;;;;;12608851;28;19948;-39
2022/11/16 13:39:57;;;;;;;;;;;12.40;99.90;;;;;;12621699;28;19928;-39
2022/11/16 13:45:59;;;;;;;;;;;12.20;99.90;;;;;;12573976;28;19925;-39
2022/11/16 13:52:08;;;;;;;;;;;12.20;99.90;;;;;;12603094;28;19925;-39
2022/11/16 13:58:31;;;;;;;;;;;12.20;99.90;;;;;;12598135;28;19928;-39
2022/11/16 14:04:48;;;;;;;;;;;12.10;99.90;;;;;;12618256;28;19924;-39
2022/11/16 14:10:50;;;;;;;;;;;11.90;99.90;;;;;;12608971;28;19935;-39
2022/11/16 14:16:51;;;;;;;;;;;11.70;99.90;;;;;;12616013;28;19973;-39
2022/11/16 14:23:03;;;;;;;;;;;11.70;99.90;;;;;;12614592;28;19932;-39
2022/11/16 14:29:22;;;;;;;;;;;11.70;99.90;;;;;;12620319;28;19928;-39
2022/11/16 14:35:26;;;;;;;;;;;11.70;99.90;;;;;;12621750;28;19928;-39
2022/11/16 14:41:28;;;;;;;;;;;11.60;99.90;;;;;;12614619;28;19924;-39
2022/11/16 14:47:32;;;;;;;;;;;11.40;99.90;;;;;;12609433;28;19935;-39
2022/11/16 14:53:36;;;;;;;;;;;11.40;99.90;;;;;;12607567;28;19931;-39
2022/11/16 14:59:38;;;;;;;;;;;11.30;99.90;;;;;;12609989;28;19932;-39
2022/11/16 15:05:40;;;;;;;;;;;11.30;99.90;;;;;;12619527;28;19928;-39
2022/11/16 15:18:11;;;;;;;;;;;11.20;99.90;;;;;;12608036;28;19954;-39
2022/11/16 15:24:20;;;;;;;;;;;11.00;99.90;;;;;;12623369;28;19928;-39
2022/11/16 15:30:33;;;;;;;;;;;10.90;99.90;;;;;;12621433;28;20380;-39
2022/11/16 15:36:38;;;;;;;;;;;10.90;99.90;;;;;;12624776;28;20387;-39
2022/11/16 15:42:41;;;;;;;;;;;10.60;99.90;;;;;;12624777;28;20379;-39
2022/11/16 15:48:43;;;;;;;;;;;10.40;99.90;;;;;;12602179;28;19928;-39
2022/11/16 15:55:04;;;;;;;;;;;10.20;99.90;;;;;;12607945;28;20329;-38
2022/11/16 16:01:07;;;;;;;;;;;10.10;99.90;;;;;;12611640;28;20514;-39
2022/11/16 16:07:09;;;;;;;;;;;9.90;99.90;;;;;;12610525;28;19932;-39
2022/11/16 16:13:21;;;;;;;;;;;9.70;99.90;;;;;;12606317;28;19978;-39
2022/11/16 16:19:23;;;;;;;;;;;9.70;99.90;;;;;;12603740;28;19928;-39
2022/11/16 16:25:26;;;;;;;;;;;9.60;99.90;;;;;;12608298;28;19935;-38
2022/11/16 16:31:28;;;;;;;;;;;9.50;99.90;;;;;;12615269;28;19932;-39
2022/11/16 16:37:30;;;;;;;;;;;9.50;99.90;;;;;;12626491;28;19935;-39
2022/11/16 16:43:32;;;;;;;;;;;9.30;99.90;;;;;;12597356;28;20007;-39
2022/11/16 16:49:34;;;;;;;;;;;9.30;99.90;;;;;;12604620;28;19930;-38
2022/11/16 16:55:36;;;;;;;;;;;9.20;99.90;;;;;;12606487;28;20011;-39
2022/11/16 17:01:39;;;;;;;;;;;9.20;99.90;;;;;;12612313;28;19924;-38
2022/11/16 17:07:42;;;;;;;;;;;9.10;99.90;;;;;;12607204;28;20289;-39
2022/11/16 17:13:44;;;;;;;;;;;9.10;99.90;;;;;;12611509;28;19950;-39
2022/11/16 17:19:46;;;;;;;;;;;9.10;99.90;;;;;;12613407;28;19971;-39
2022/11/16 17:25:47;;;;;;;;;;;9.10;99.90;;;;;;12607519;28;19932;-39
2022/11/16 17:31:49;;;;;;;;;;;9.10;99.90;;;;;;12620364;28;19935;-40
2022/11/16 17:37:51;;;;;;;;;;;9.10;99.90;;;;;;12618532;28;19939;-39
2022/11/16 17:43:53;;;;;;;;;;;9.10;99.90;;;;;;12605116;28;19925;-39
2022/11/16 17:49:55;;;;;;;;;;;9.10;99.90;;;;;;12606400;28;19924;-39
2022/11/16 17:55:56;;;;;;;;;;;9.10;99.90;;;;;;12607917;28;19964;-39
2022/11/16 18:01:58;;;;;;;;;;;9.00;99.90;;;;;;12617388;28;19924;-39
2022/11/16 18:08:00;;;;;;;;;;;9.00;99.90;;;;;;12608770;28;19931;-39
2022/11/16 18:14:04;;;;;;;;;;;9.00;99.90;;;;;;12609015;28;19931;-39
2022/11/16 18:20:07;;;;;;;;;;;9.00;99.90;;;;;;12602348;28;19925;-39
2022/11/16 18:26:13;;;;;;;;;;;9.00;99.90;;;;;;12555939;28;19929;-39
2022/11/16 18:32:14;;;;;;;;;;;9.00;99.90;;;;;;12602879;28;19987;-39
2022/11/16 18:38:16;;;;;;;;;;;8.90;99.90;;;;;;12611407;28;21682;-39
2022/11/16 18:44:18;;;;;;;;;;;8.90;99.90;;;;;;12606491;28;20300;-39
2022/11/16 18:50:19;;;;;;;;;;;8.80;99.90;;;;;;12606072;28;19932;-40
2022/11/16 18:56:27;;;;;;;;;;;8.70;99.90;;;;;;12597938;28;19935;-39
2022/11/16 19:02:29;;;;;;;;;;;8.60;99.90;;;;;;12613270;28;19924;-39
2022/11/16 19:08:30;;;;;;;;;;;8.60;99.90;;;;;;12615468;28;19933;-39
2022/11/16 19:14:33;;;;;;;;;;;8.50;99.90;;;;;;12613538;28;19928;-39
2022/11/16 19:20:34;;;;;;;;;;;8.40;99.90;;;;;;12619039;28;19924;-39
2022/11/16 19:26:36;;;;;;;;;;;8.40;99.90;;;;;;12611113;28;19933;-39
2022/11/16 19:32:38;;;;;;;;;;;8.40;99.90;;;;;;12622203;28;19928;-39
2022/11/16 19:38:40;;;;;;;;;;;8.30;99.90;;;;;;12618034;28;20019;-39
2022/11/16 19:44:41;;;;;;;;;;;8.30;99.90;;;;;;12610989;28;19928;-39
2022/11/16 19:50:43;;;;;;;;;;;8.20;99.90;;;;;;12590119;28;19924;-39
2022/11/16 19:56:45;;;;;;;;;;;8.20;99.90;;;;;;12590113;28;19932;-39
2022/11/16 20:02:54;;;;;;;;;;;8.20;99.90;;;;;;12611588;28;19924;-39
2022/11/16 20:08:59;;;;;;;;;;;8.30;99.90;;;;;;12615291;28;19929;-39
2022/11/16 20:15:01;;;;;;;;;;;8.20;99.90;;;;;;12605636;28;20073;-39
2022/11/16 20:21:07;;;;;;;;;;;8.30;99.90;;;;;;12619845;28;19950;-39
2022/11/16 20:27:08;;;;;;;;;;;8.20;99.90;;;;;;12596602;28;19931;-39
2022/11/16 20:33:10;;;;;;;;;;;8.20;99.90;;;;;;12612054;28;19932;-39
2022/11/16 20:39:13;;;;;;;;;;;8.20;99.90;;;;;;12611096;28;19932;-39
2022/11/16 20:45:15;;;;;;;;;;;8.20;99.90;;;;;;12615267;28;19935;-39
2022/11/16 20:51:18;;;;;;;;;;;8.30;99.90;;;;;;12599815;28;19931;-39
2022/11/16 20:57:19;;;;;;;;;;;8.30;99.90;;;;;;12609103;28;20445;-39
2022/11/16 21:03:21;;;;;;;;;;;8.30;99.90;;;;;;12621594;28;19928;-39
2022/11/16 21:09:24;;;;;;;;;;;8.20;99.90;;;;;;12611561;28;19932;-39
2022/11/16 21:15:26;;;;;;;;;;;8.30;99.90;;;;;;12611270;28;19925;-39
2022/11/16 21:21:28;;;;;;;;;;;8.30;99.90;;;;;;12614404;28;19967;-39
2022/11/16 21:27:29;;;;;;;;;;;8.30;99.90;;;;;;12604637;28;20042;-40
2022/11/16 21:33:31;;;;;;;;;;;8.30;99.90;;;;;;12614471;28;19936;-39
2022/11/16 21:39:34;;;;;;;;;;;8.30;99.90;;;;;;12604580;28;19924;-39
2022/11/16 21:45:35;;;;;;;;;;;8.20;99.90;;;;;;12622930;28;19928;-39
2022/11/16 21:51:37;;;;;;;;;;;8.10;99.90;;;;;;12611652;28;19931;-39
2022/11/16 21:57:39;;;;;;;;;;;8.00;99.90;;;;;;12590801;28;19924;-39
2022/11/16 22:03:40;;;;;;;;;;;8.00;99.90;;;;;;12610924;28;20007;-38
2022/11/16 22:09:42;;;;;;;;;;;8.00;99.90;;;;;;12609865;28;19928;-39
2022/11/16 22:15:44;;;;;;;;;;;8.00;99.90;;;;;;12613978;28;19925;-39
2022/11/16 22:21:46;;;;;;;;;;;8.00;99.90;;;;;;12602105;28;19936;-39
2022/11/16 22:27:48;;;;;;;;;;;8.00;99.90;;;;;;12603653;28;19935;-39
2022/11/16 22:34:09;;;;;;;;;;;7.90;99.90;;;;;;12613909;28;19951;-38
2022/11/16 22:40:11;;;;;;;;;;;8.00;99.90;;;;;;12618784;28;19932;-39
2022/11/16 22:46:18;;;;;;;;;;;8.00;99.90;;;;;;12625248;28;19932;-38
2022/11/16 22:52:20;;;;;;;;;;;8.00;99.90;;;;;;12616622;28;19924;-39
2022/11/16 22:58:21;;;;;;;;;;;8.00;99.90;;;;;;12620644;28;19939;-39
2022/11/16 23:04:23;;;;;;;;;;;8.00;99.90;;;;;;12622132;28;19924;-39
2022/11/16 23:10:25;;;;;;;;;;;8.10;99.90;;;;;;12610670;28;19944;-39
2022/11/16 23:16:26;;;;;;;;;;;8.00;99.90;;;;;;12613165;28;19924;-39
2022/11/16 23:28:49;;;;;;;;;;;8.00;99.90;;;;;;12615421;28;20272;-38
2022/11/16 23:34:50;;;;;;;;;;;8.00;99.90;;;;;;12616405;28;19980;-38
2022/11/16 23:40:52;;;;;;;;;;;7.90;99.90;;;;;;12616021;28;19925;-38
2022/11/16 23:46:54;;;;;;;;;;;7.90;99.90;;;;;;12609705;28;20346;-39
2022/11/16 23:52:56;;;;;;;;;;;7.90;99.90;;;;;;12597764;28;19925;-39
2022/11/16 23:58:57;;;;;;;;;;;7.90;99.90;;;;;;12599728;28;19924;-39
